createdAt,value
2023-04-20T00:00:56.649Z,138.43
2023-04-20T00:03:27.302Z,148.13
2023-04-20T00:05:55.345Z,141.73
2023-04-20T00:08:23.095Z,135.90
2023-04-20T00:10:50.896Z,134.13
2023-04-20T00:13:18.605Z,138.10
2023-04-20T00:15:46.347Z,143.83
2023-04-20T00:18:14.214Z,134.50
2023-04-20T00:20:43.260Z,139.60
2023-04-20T00:23:11.094Z,123.27
2023-04-20T00:25:38.903Z,128.70
2023-04-20T00:28:06.539Z,129.23
2023-04-20T00:30:34.895Z,138.03
2023-04-20T00:33:03.545Z,143.23
2023-04-20T00:35:31.509Z,143.47
2023-04-20T00:38:00.704Z,144.33
2023-04-20T00:40:28.612Z,131.37
2023-04-20T00:42:57.375Z,126.70
2023-04-20T00:45:25.427Z,135.40
2023-04-20T00:47:53.110Z,132.57
2023-04-20T00:50:21.949Z,127.13
2023-04-20T00:52:49.666Z,131.17
2023-04-20T00:55:20.780Z,130.60
2023-04-20T00:57:48.626Z,125.20
2023-04-20T01:00:16.747Z,126.40
2023-04-20T01:02:44.695Z,131.07
2023-04-20T01:05:12.623Z,125.30
2023-04-20T01:07:40.733Z,115.20
2023-04-20T01:10:09.617Z,124.00
2023-04-20T01:12:42.079Z,123.30
2023-04-20T01:15:12.133Z,119.07
2023-04-20T01:17:40.546Z,126.73
2023-04-20T01:20:12.764Z,122.83
2023-04-20T01:22:46.559Z,120.07
2023-04-20T01:25:14.929Z,124.10
2023-04-20T01:27:43.079Z,113.87
2023-04-20T01:30:12.615Z,123.50
2023-04-20T01:32:41.312Z,133.03
2023-04-20T01:35:10.406Z,130.57
2023-04-20T01:37:39.325Z,129.97
2023-04-20T01:40:10.282Z,124.90
2023-04-20T01:42:37.997Z,129.37
2023-04-20T01:45:06.893Z,125.70
2023-04-20T01:47:36.576Z,120.27
2023-04-20T01:50:04.747Z,126.57
2023-04-20T01:52:32.389Z,124.13
2023-04-20T01:55:00.043Z,132.33
2023-04-20T01:57:29.084Z,116.53
2023-04-20T01:59:56.812Z,131.40
2023-04-20T02:02:24.589Z,127.33
2023-04-20T02:04:53.274Z,127.00
2023-04-20T02:07:21.249Z,119.50
2023-04-20T02:09:48.880Z,128.70
2023-04-20T02:12:16.554Z,124.20
2023-04-20T02:14:45.566Z,126.50
2023-04-20T02:17:13.866Z,112.40
2023-04-20T02:19:41.621Z,124.80
2023-04-20T02:22:09.255Z,125.73
2023-04-20T02:24:36.933Z,126.87
2023-04-20T02:27:04.896Z,124.67
2023-04-20T02:29:32.916Z,123.93
2023-04-20T02:32:02.071Z,130.67
2023-04-20T02:34:29.717Z,124.83
2023-04-20T02:36:57.962Z,136.00
2023-04-20T02:39:26.084Z,134.47
2023-04-20T02:41:55.864Z,142.33
2023-04-20T02:44:24.550Z,133.90
2023-04-20T02:46:52.472Z,144.43
2023-04-20T02:49:22.798Z,135.90
2023-04-20T02:51:50.731Z,131.50
2023-04-20T02:54:18.433Z,134.10
2023-04-20T02:56:46.326Z,129.80
2023-04-20T02:59:20.390Z,127.73
2023-04-20T03:02:06.563Z,129.07
2023-04-20T03:04:35.767Z,141.00
2023-04-20T03:07:11.646Z,142.53
2023-04-20T03:09:40.649Z,142.33
2023-04-20T03:12:35.915Z,138.83
2023-04-20T03:15:06.173Z,141.00
2023-04-20T03:18:03.814Z,133.60
2023-04-20T03:20:33.380Z,148.50
2023-04-20T03:23:01.333Z,150.10
2023-04-20T03:25:29.513Z,144.80
2023-04-20T03:27:59.705Z,162.50
2023-04-20T03:30:27.996Z,151.43
2023-04-20T03:33:10.221Z,140.70
2023-04-20T03:35:40.087Z,143.23
2023-04-20T03:38:07.836Z,130.83
2023-04-20T03:40:35.901Z,144.40
2023-04-20T03:43:03.595Z,145.13
2023-04-20T03:45:31.310Z,142.97
2023-04-20T03:47:58.967Z,151.03
2023-04-20T03:50:27.880Z,148.83
2023-04-20T03:52:56.878Z,146.37
2023-04-20T03:55:24.673Z,140.30
2023-04-20T03:57:59.492Z,156.83
2023-04-20T04:00:31.203Z,146.93
2023-04-20T04:03:07.615Z,145.10
2023-04-20T04:05:35.491Z,148.63
2023-04-20T04:08:06.079Z,140.00
2023-04-20T04:10:34.047Z,144.13
2023-04-20T04:13:01.669Z,143.47
2023-04-20T04:15:29.728Z,142.00
2023-04-20T04:18:05.489Z,141.70
2023-04-20T04:20:35.089Z,138.47
2023-04-20T04:23:02.906Z,152.93
2023-04-20T04:25:52.629Z,138.57
2023-04-20T04:28:24.972Z,140.17
2023-04-20T04:31:06.016Z,146.93
2023-04-20T04:33:35.728Z,141.90
2023-04-20T04:36:07.324Z,146.97
2023-04-20T04:38:54.875Z,131.57
2023-04-20T04:41:24.361Z,144.50
2023-04-20T04:43:53.396Z,152.17
2023-04-20T04:46:27.745Z,136.93
2023-04-20T04:49:00.870Z,144.13
2023-04-20T04:51:28.657Z,144.63
2023-04-20T04:53:56.578Z,155.80
2023-04-20T04:56:25.666Z,155.13
2023-04-20T04:58:53.329Z,150.53
2023-04-20T05:01:21.377Z,143.90
2023-04-20T05:03:49.211Z,152.93
2023-04-20T05:06:16.983Z,140.90
2023-04-20T05:08:44.641Z,151.83
2023-04-20T05:11:12.278Z,151.07
2023-04-20T05:13:41.539Z,148.10
2023-04-20T05:16:09.292Z,154.63
2023-04-20T05:18:36.966Z,146.87
2023-04-20T05:21:04.947Z,152.30
2023-04-20T05:23:33.213Z,154.30
2023-04-20T05:26:00.840Z,144.43
2023-04-20T05:28:28.492Z,147.70
2023-04-20T05:30:57.441Z,131.60
2023-04-20T05:33:25.979Z,147.60
2023-04-20T05:35:57.429Z,162.20
2023-04-20T05:38:25.370Z,158.40
2023-04-20T05:40:53.196Z,147.73
2023-04-20T05:43:20.878Z,168.90
2023-04-20T05:45:49.664Z,161.00
2023-04-20T05:48:18.643Z,157.07
2023-04-20T05:50:46.702Z,157.73
2023-04-20T05:53:14.351Z,155.97
2023-04-20T05:55:42.011Z,153.93
2023-04-20T05:58:09.631Z,170.53
2023-04-20T06:00:37.250Z,170.80
2023-04-20T06:03:05.467Z,164.20
2023-04-20T06:05:34.799Z,161.97
2023-04-20T06:08:02.411Z,164.23
2023-04-20T06:10:32.396Z,157.67
2023-04-20T06:13:00.105Z,172.27
2023-04-20T06:15:27.793Z,170.10
2023-04-20T06:17:55.557Z,174.27
2023-04-20T06:20:23.765Z,158.03
2023-04-20T06:22:53.031Z,164.50
2023-04-20T06:25:20.659Z,168.77
2023-04-20T06:27:49.607Z,176.47
2023-04-20T06:30:18.365Z,164.90
2023-04-20T06:32:46.113Z,169.77
2023-04-20T06:35:13.784Z,177.60
2023-04-20T06:37:41.423Z,181.37
2023-04-20T06:40:10.653Z,175.30
2023-04-20T06:42:38.566Z,170.67
2023-04-20T06:45:07.456Z,182.83
2023-04-20T06:47:35.484Z,175.07
2023-04-20T06:50:07.057Z,177.47
2023-04-20T06:52:34.747Z,178.23
2023-04-20T06:55:02.353Z,181.40
2023-04-20T06:57:31.488Z,189.50
2023-04-20T06:59:59.741Z,187.67
2023-04-20T07:02:28.402Z,200.00
2023-04-20T07:05:02.371Z,191.27
2023-04-20T07:07:30.069Z,198.73
2023-04-20T07:09:57.704Z,212.80
2023-04-20T07:12:25.362Z,208.43
2023-04-20T07:14:54.772Z,203.53
2023-04-20T07:17:22.497Z,205.43
2023-04-20T07:19:50.712Z,228.13
2023-04-20T07:22:18.352Z,231.93
2023-04-20T07:24:45.979Z,232.63
2023-04-20T07:27:13.634Z,226.00
2023-04-20T07:29:41.304Z,233.73
2023-04-20T07:32:10.395Z,226.00
2023-04-20T07:34:38.046Z,225.20
2023-04-20T07:37:05.669Z,239.93
2023-04-20T07:39:33.410Z,240.63
2023-04-20T07:42:03.587Z,227.43
2023-04-20T07:44:31.331Z,215.83
2023-04-20T07:46:59.086Z,216.03
2023-04-20T07:49:28.175Z,238.87
2023-04-20T07:52:06.006Z,229.67
2023-04-20T07:54:40.743Z,227.87
2023-04-20T07:57:09.393Z,235.03
2023-04-20T07:59:37.195Z,215.20
2023-04-20T08:02:04.966Z,221.50
2023-04-20T08:04:34.395Z,233.43
2023-04-20T08:07:02.190Z,240.75
2023-04-20T08:09:29.986Z,221.05
2023-04-20T08:11:57.690Z,233.88
2023-04-20T08:14:25.417Z,243.85
2023-04-20T08:16:53.027Z,226.93
2023-04-20T08:19:20.772Z,223.07
2023-04-20T08:21:49.994Z,242.80
2023-04-20T08:24:17.934Z,236.18
2023-04-20T08:26:45.815Z,239.07
2023-04-20T08:29:13.500Z,214.32
2023-04-20T08:31:41.245Z,216.20
2023-04-20T08:34:09.006Z,206.00
2023-04-20T08:36:37.275Z,206.48
2023-04-20T08:39:10.784Z,217.57
2023-04-20T08:41:38.750Z,208.23
2023-04-20T08:44:08.091Z,208.73
2023-04-20T08:46:36.531Z,197.35
2023-04-20T08:49:04.440Z,208.60
2023-04-20T08:51:33.424Z,201.20
2023-04-20T08:54:06.299Z,203.73
2023-04-20T08:56:40.672Z,198.77
2023-04-20T08:59:10.424Z,201.90
2023-04-20T09:01:41.467Z,200.52
2023-04-20T09:04:20.084Z,207.52
2023-04-20T09:06:50.161Z,199.73
2023-04-20T09:09:18.352Z,205.90
2023-04-20T09:11:47.520Z,196.00
2023-04-20T09:14:18.314Z,193.43
2023-04-20T09:16:51.291Z,190.63
2023-04-20T09:19:23.533Z,184.75
2023-04-20T09:21:52.391Z,191.32
2023-04-20T09:24:21.395Z,194.52
2023-04-20T09:26:50.428Z,179.80
2023-04-20T09:29:19.111Z,184.90
2023-04-20T09:31:48.157Z,187.93
2023-04-20T09:34:16.934Z,180.35
2023-04-20T09:36:46.001Z,191.25
2023-04-20T09:39:16.410Z,193.02
2023-04-20T09:41:44.918Z,203.43
2023-04-20T09:44:15.103Z,191.85
2023-04-20T09:46:44.283Z,179.25
2023-04-20T09:49:14.673Z,184.63
2023-04-20T09:51:45.370Z,203.30
2023-04-20T09:54:14.247Z,184.75
2023-04-20T09:56:42.460Z,191.93
2023-04-20T09:59:10.209Z,197.82
2023-04-20T10:01:39.285Z,191.73
2023-04-20T10:04:09.286Z,191.98
2023-04-20T10:06:38.204Z,188.10
2023-04-20T10:09:07.352Z,178.13
2023-04-20T10:11:48.929Z,163.73
2023-04-20T10:14:22.962Z,162.90
2023-04-20T10:17:01.980Z,166.25
2023-04-20T10:19:40.693Z,166.82
2023-04-20T10:22:08.859Z,170.27
2023-04-20T10:24:38.080Z,179.88
2023-04-20T10:27:17.391Z,185.32
2023-04-20T10:29:45.161Z,165.55
2023-04-20T10:32:24.607Z,171.65
2023-04-20T10:35:04.657Z,156.02
2023-04-20T10:37:32.574Z,163.82
2023-04-20T10:40:00.994Z,165.25
2023-04-20T10:42:29.634Z,156.38
2023-04-20T10:44:57.459Z,155.45
2023-04-20T10:47:30.578Z,152.30
2023-04-20T10:50:07.565Z,141.95
2023-04-20T10:52:36.530Z,135.68
2023-04-20T10:55:04.691Z,144.80
2023-04-20T10:57:32.477Z,149.82
2023-04-20T11:00:00.233Z,148.45
2023-04-20T11:02:29.400Z,146.63
2023-04-20T11:05:00.937Z,136.48
2023-04-20T11:07:28.740Z,124.70
2023-04-20T11:09:57.490Z,144.18
2023-04-20T11:12:25.172Z,136.35
2023-04-20T11:14:54.343Z,138.60
2023-04-20T11:17:31.766Z,130.63
2023-04-20T11:20:10.863Z,134.35
2023-04-20T11:22:39.940Z,130.13
2023-04-20T11:25:09.227Z,141.30
2023-04-20T11:27:37.995Z,136.05
2023-04-20T11:30:07.994Z,131.20
2023-04-20T11:32:38.081Z,138.57
2023-04-20T11:35:10.793Z,136.80
2023-04-20T11:37:47.375Z,134.70
2023-04-20T11:40:15.279Z,145.82
2023-04-20T11:42:43.081Z,131.90
2023-04-20T11:45:11.822Z,138.90
2023-04-20T11:47:41.488Z,127.63
2023-04-20T11:50:11.603Z,132.00
2023-04-20T11:52:39.254Z,131.88
2023-04-20T11:55:08.242Z,141.65
2023-04-20T11:57:36.074Z,142.25
2023-04-20T12:00:04.296Z,135.85
2023-04-20T12:02:41.810Z,147.50
2023-04-20T12:05:12.142Z,141.85
2023-04-20T12:07:39.958Z,149.10
2023-04-20T12:10:09.287Z,148.02
2023-04-20T12:12:38.127Z,131.15
2023-04-20T12:15:07.504Z,145.40
2023-04-20T12:17:35.178Z,144.38
2023-04-20T12:20:02.966Z,144.65
2023-04-20T12:22:31.943Z,137.95
2023-04-20T12:25:00.333Z,139.27
2023-04-20T12:27:27.951Z,133.52
2023-04-20T12:29:56.020Z,145.23
2023-04-20T12:32:23.773Z,147.68
2023-04-20T12:34:51.490Z,143.07
2023-04-20T12:37:20.172Z,129.85
2023-04-20T12:39:49.150Z,137.05
2023-04-20T12:42:16.943Z,139.65
2023-04-20T12:44:44.611Z,138.93
2023-04-20T12:47:13.461Z,134.60
2023-04-20T12:49:41.250Z,165.52
2023-04-20T12:52:08.944Z,167.95
2023-04-20T12:54:36.618Z,175.45
2023-04-20T12:57:05.730Z,176.20
2023-04-20T12:59:33.403Z,168.10
2023-04-20T13:02:01.126Z,175.68
2023-04-20T13:04:29.096Z,172.40
2023-04-20T13:06:56.831Z,164.45
2023-04-20T13:09:26.969Z,156.40
2023-04-20T13:11:55.026Z,158.00
2023-04-20T13:14:23.991Z,143.88
2023-04-20T13:16:54.411Z,139.18
2023-04-20T13:19:23.134Z,134.60
2023-04-20T13:21:50.795Z,121.22
2023-04-20T13:24:19.011Z,131.10
2023-04-20T13:26:46.814Z,123.47
2023-04-20T13:29:14.843Z,128.20
2023-04-20T13:31:44.340Z,125.03
2023-04-20T13:34:11.988Z,121.40
2023-04-20T13:36:39.703Z,122.20
2023-04-20T13:39:07.834Z,114.65
2023-04-20T13:41:35.501Z,123.15
2023-04-20T13:44:03.943Z,129.23
2023-04-20T13:46:32.221Z,135.73
2023-04-20T13:49:01.258Z,129.57
2023-04-20T13:51:28.889Z,135.40
2023-04-20T13:53:56.496Z,134.95
2023-04-20T13:56:24.176Z,139.60
2023-04-20T13:58:51.843Z,152.40
2023-04-20T14:01:19.559Z,145.00
2023-04-20T14:03:47.392Z,157.30
2023-04-20T14:06:16.483Z,163.85
2023-04-20T14:08:44.186Z,158.05
2023-04-20T14:11:12.212Z,166.30
2023-04-20T14:13:39.953Z,162.68
2023-04-20T14:16:10.266Z,175.15
2023-04-20T14:18:38.061Z,156.50
2023-04-20T14:21:06.148Z,169.18
2023-04-20T14:23:35.205Z,165.10
2023-04-20T14:26:03.843Z,159.05
2023-04-20T14:28:33.283Z,166.38
2023-04-20T14:31:02.656Z,163.13
2023-04-20T14:33:30.817Z,158.13
2023-04-20T14:35:58.483Z,170.45
2023-04-20T14:38:26.284Z,174.18
2023-04-20T14:40:55.321Z,168.55
2023-04-20T14:43:23.050Z,166.75
2023-04-20T14:45:51.089Z,165.93
2023-04-20T14:48:18.875Z,166.70
2023-04-20T14:50:46.525Z,170.05
2023-04-20T14:53:14.693Z,157.35
2023-04-20T14:55:42.298Z,160.63
2023-04-20T14:58:11.302Z,162.25
2023-04-20T15:00:38.952Z,166.77
2023-04-20T15:03:06.779Z,169.20
2023-04-20T15:05:35.207Z,184.18
2023-04-20T15:08:03.321Z,156.35
2023-04-20T15:10:31.387Z,152.93
2023-04-20T15:12:59.067Z,141.75
2023-04-20T15:15:37.662Z,156.52
2023-04-20T15:18:14.847Z,147.77
2023-04-20T15:20:42.615Z,148.50
2023-04-20T15:23:10.290Z,158.73
2023-04-20T15:25:37.893Z,165.10
2023-04-20T15:28:05.957Z,144.65
2023-04-20T15:30:35.018Z,149.45
2023-04-20T15:33:05.140Z,150.10
2023-04-20T15:35:33.430Z,161.48
2023-04-20T15:38:01.255Z,175.15
2023-04-20T15:40:28.893Z,182.48
2023-04-20T15:42:56.649Z,161.43
2023-04-20T15:45:24.556Z,159.98
2023-04-20T15:47:53.594Z,158.75
2023-04-20T15:50:21.245Z,166.95
2023-04-20T15:52:50.676Z,159.43
2023-04-20T15:55:18.491Z,151.45
2023-04-20T15:57:46.138Z,151.27
2023-04-20T16:00:15.066Z,150.32
2023-04-20T16:02:42.857Z,159.65
2023-04-20T16:05:12.063Z,155.18
2023-04-20T16:07:39.731Z,153.32
2023-04-20T16:10:09.000Z,156.55
2023-04-20T16:12:36.733Z,163.20
2023-04-20T16:15:05.426Z,167.85
2023-04-20T16:17:33.252Z,161.43
2023-04-20T16:20:00.911Z,162.77
2023-04-20T16:22:29.877Z,171.20
2023-04-20T16:24:58.177Z,170.07
2023-04-20T16:27:26.666Z,182.73
2023-04-20T16:29:54.374Z,174.40
2023-04-20T16:32:22.084Z,189.43
2023-04-20T16:34:49.799Z,184.25
2023-04-20T16:37:17.439Z,192.60
2023-04-20T16:39:47.085Z,182.80
2023-04-20T16:42:14.730Z,207.07
2023-04-20T16:44:42.357Z,176.70
2023-04-20T16:47:10.046Z,187.40
2023-04-20T16:49:37.809Z,190.40
2023-04-20T16:52:05.427Z,195.23
2023-04-20T16:54:33.094Z,189.80
2023-04-20T16:57:02.295Z,218.07
2023-04-20T16:59:29.928Z,205.80
2023-04-20T17:01:57.774Z,194.85
2023-04-20T17:04:25.495Z,201.32
2023-04-20T17:06:53.817Z,210.70
2023-04-20T17:09:21.420Z,217.10
2023-04-20T17:11:49.043Z,216.73
2023-04-20T17:14:18.226Z,226.77
2023-04-20T17:16:46.123Z,217.70
2023-04-20T17:19:13.884Z,220.73
2023-04-20T17:21:41.585Z,233.93
2023-04-20T17:24:09.203Z,223.20
2023-04-20T17:26:36.910Z,240.93
2023-04-20T17:29:04.701Z,235.80
2023-04-20T17:31:34.267Z,231.77
2023-04-20T17:34:02.006Z,233.30
2023-04-20T17:36:29.693Z,237.87
2023-04-20T17:38:57.304Z,237.30
2023-04-20T17:41:24.935Z,242.13
2023-04-20T17:43:52.684Z,238.57
2023-04-20T17:46:20.394Z,239.60
2023-04-20T17:48:49.393Z,230.47
2023-04-20T17:51:17.044Z,227.33
2023-04-20T17:53:44.823Z,246.77
2023-04-20T17:56:12.631Z,250.37
2023-04-20T17:58:40.270Z,238.97
2023-04-20T18:01:07.997Z,229.93
2023-04-20T18:03:35.928Z,236.87
2023-04-20T18:06:05.436Z,238.23
2023-04-20T18:08:34.366Z,240.97
2023-04-20T18:11:03.089Z,244.23
2023-04-20T18:13:30.999Z,235.30
2023-04-20T18:15:59.498Z,225.37
2023-04-20T18:18:27.192Z,249.17
2023-04-20T18:20:54.887Z,248.03
2023-04-20T18:23:24.337Z,263.70
2023-04-20T18:25:53.669Z,245.03
2023-04-20T18:28:21.446Z,250.20
2023-04-20T18:30:49.406Z,235.37
2023-04-20T18:33:17.200Z,248.67
2023-04-20T18:35:45.738Z,242.17
2023-04-20T18:38:13.455Z,230.03
2023-04-20T18:40:42.559Z,249.17
2023-04-20T18:43:10.347Z,237.63
2023-04-20T18:45:38.002Z,240.87
2023-04-20T18:48:06.522Z,240.67
2023-04-20T18:50:34.454Z,236.87
2023-04-20T18:53:02.132Z,252.40
2023-04-20T18:55:29.830Z,236.83
2023-04-20T18:57:58.932Z,238.00
2023-04-20T19:00:26.821Z,229.43
2023-04-20T19:02:54.603Z,239.10
2023-04-20T19:05:22.568Z,232.20
2023-04-20T19:07:50.226Z,225.93
2023-04-20T19:10:17.890Z,220.93
2023-04-20T19:12:45.614Z,228.80
2023-04-20T19:15:14.981Z,233.43
2023-04-20T19:17:42.900Z,244.47
2023-04-20T19:20:11.289Z,227.73
2023-04-20T19:22:38.950Z,223.10
2023-04-20T19:25:07.706Z,219.53
2023-04-20T19:27:35.358Z,238.60
2023-04-20T19:30:03.464Z,218.10
2023-04-20T19:32:32.470Z,220.13
2023-04-20T19:35:00.393Z,231.47
2023-04-20T19:37:28.430Z,236.20
2023-04-20T19:39:56.129Z,233.63
2023-04-20T19:42:23.718Z,242.43
2023-04-20T19:44:51.443Z,218.23
2023-04-20T19:47:20.237Z,224.10
2023-04-20T19:49:49.408Z,216.13
2023-04-20T19:52:17.099Z,215.30
2023-04-20T19:54:44.735Z,213.63
2023-04-20T19:57:12.386Z,223.20
2023-04-20T19:59:41.653Z,232.37
2023-04-20T20:02:09.360Z,225.93
2023-04-20T20:04:39.272Z,219.10
2023-04-20T20:07:08.414Z,223.07
2023-04-20T20:09:36.101Z,238.60
2023-04-20T20:12:04.768Z,233.40
2023-04-20T20:14:32.454Z,219.40
2023-04-20T20:17:00.178Z,228.97
2023-04-20T20:19:27.779Z,217.47
2023-04-20T20:21:55.506Z,216.30
2023-04-20T20:24:25.135Z,221.10
2023-04-20T20:26:52.874Z,237.83
2023-04-20T20:29:20.679Z,242.77
2023-04-20T20:31:48.625Z,233.87
2023-04-20T20:34:16.447Z,234.63
2023-04-20T20:36:46.272Z,227.70
2023-04-20T20:39:14.367Z,252.07
2023-04-20T20:41:43.404Z,250.07
2023-04-20T20:44:11.219Z,228.20
2023-04-20T20:46:39.499Z,240.57
2023-04-20T20:49:07.234Z,229.07
2023-04-20T20:51:34.927Z,254.43
2023-04-20T20:54:02.552Z,244.60
2023-04-20T20:56:30.174Z,254.33
2023-04-20T20:58:59.137Z,249.07
2023-04-20T21:01:27.028Z,245.50
2023-04-20T21:03:55.163Z,244.60
2023-04-20T21:06:23.251Z,254.97
2023-04-20T21:08:50.896Z,258.73
2023-04-20T21:11:18.488Z,267.17
2023-04-20T21:13:46.139Z,249.87
2023-04-20T21:16:15.122Z,237.27
2023-04-20T21:18:42.813Z,243.67
2023-04-20T21:21:13.092Z,245.97
2023-04-20T21:23:40.787Z,251.30
2023-04-20T21:26:08.426Z,239.40
2023-04-20T21:28:36.033Z,237.60
2023-04-20T21:31:03.713Z,231.33
2023-04-20T21:33:34.524Z,239.80
2023-04-20T21:36:02.271Z,235.13
2023-04-20T21:38:29.907Z,230.53
2023-04-20T21:40:57.486Z,228.70
2023-04-20T21:43:25.194Z,225.13
2023-04-20T21:45:53.019Z,239.10
2023-04-20T21:48:20.705Z,232.17
2023-04-20T21:50:49.682Z,230.53
2023-04-20T21:53:17.421Z,234.63
2023-04-20T21:55:45.027Z,243.73
2023-04-20T21:58:12.665Z,239.47
2023-04-20T22:00:40.434Z,228.93
2023-04-20T22:03:08.300Z,239.30
2023-04-20T22:05:36.387Z,247.57
2023-04-20T22:08:05.824Z,239.80
2023-04-20T22:10:33.520Z,230.53
2023-04-20T22:13:01.167Z,231.60
2023-04-20T22:15:29.008Z,240.17
2023-04-20T22:18:00.466Z,240.73
2023-04-20T22:20:28.508Z,245.53
2023-04-20T22:22:57.284Z,230.27
2023-04-20T22:25:26.853Z,243.90
2023-04-20T22:27:54.816Z,241.77
2023-04-20T22:30:22.733Z,237.63
2023-04-20T22:32:50.528Z,251.07
2023-04-20T22:35:18.215Z,238.73
2023-04-20T22:37:45.928Z,252.17
2023-04-20T22:40:14.133Z,247.97
2023-04-20T22:42:43.119Z,223.83
2023-04-20T22:45:11.910Z,229.27
2023-04-20T22:47:39.917Z,234.20
2023-04-20T22:50:09.565Z,239.53
2023-04-20T22:52:38.437Z,219.00
2023-04-20T22:55:07.026Z,215.33
2023-04-20T22:57:34.819Z,210.80
2023-04-20T23:00:09.954Z,231.30
2023-04-20T23:02:38.074Z,224.07
2023-04-20T23:05:06.517Z,199.40
2023-04-20T23:07:34.489Z,221.87
2023-04-20T23:10:02.701Z,214.57
2023-04-20T23:12:30.384Z,204.23
2023-04-20T23:15:00.436Z,204.27
2023-04-20T23:17:29.791Z,203.80
2023-04-20T23:19:57.582Z,207.80
2023-04-20T23:22:25.848Z,195.27
2023-04-20T23:24:53.521Z,186.97
2023-04-20T23:27:21.236Z,194.70
2023-04-20T23:29:48.839Z,202.77
2023-04-20T23:32:16.500Z,187.23
2023-04-20T23:34:45.954Z,188.17
2023-04-20T23:37:13.574Z,197.73
2023-04-20T23:39:41.233Z,185.50
2023-04-20T23:42:08.880Z,191.13
2023-04-20T23:44:36.664Z,198.87
2023-04-20T23:47:04.896Z,180.50
2023-04-20T23:49:32.549Z,197.10
2023-04-20T23:52:01.595Z,187.43
2023-04-20T23:54:29.804Z,186.77
2023-04-20T23:56:58.962Z,207.93
2023-04-20T23:59:26.730Z,193.07
